sensor_id;sensor_type;location;lat;lon;timestamp;temperature;humidity
50560;DHT22;36510;52.610;13.468;2022-08-05T00:02:08;28.60;13.80
50560;DHT22;36510;52.610;13.468;2022-08-05T00:06:59;28.30;14.00
50560;DHT22;36510;52.610;13.468;2022-08-05T00:11:49;28.30;14.60
50560;DHT22;36510;52.610;13.468;2022-08-05T00:16:40;28.20;14.80
50560;DHT22;36510;52.610;13.468;2022-08-05T00:21:30;28.10;15.00
50560;DHT22;36510;52.610;13.468;2022-08-05T00:26:21;28.00;15.70
50560;DHT22;36510;52.610;13.468;2022-08-05T00:31:12;28.00;15.90
50560;DHT22;36510;52.610;13.468;2022-08-05T00:36:03;27.80;16.30
50560;DHT22;36510;52.610;13.468;2022-08-05T00:40:56;27.70;17.00
50560;DHT22;36510;52.610;13.468;2022-08-05T00:45:48;27.50;17.30
50560;DHT22;36510;52.610;13.468;2022-08-05T00:50:40;27.50;17.60
50560;DHT22;36510;52.610;13.468;2022-08-05T00:55:31;27.40;17.70
50560;DHT22;36510;52.610;13.468;2022-08-05T01:00:21;27.30;18.20
50560;DHT22;36510;52.610;13.468;2022-08-05T01:05:12;27.10;18.60
50560;DHT22;36510;52.610;13.468;2022-08-05T01:10:03;27.10;18.50
50560;DHT22;36510;52.610;13.468;2022-08-05T01:15:08;27.00;19.30
50560;DHT22;36510;52.610;13.468;2022-08-05T01:20:28;26.90;19.00
50560;DHT22;36510;52.610;13.468;2022-08-05T01:25:43;26.70;19.90
50560;DHT22;36510;52.610;13.468;2022-08-05T01:30:40;26.70;19.80
50560;DHT22;36510;52.610;13.468;2022-08-05T01:35:33;26.60;19.90
50560;DHT22;36510;52.610;13.468;2022-08-05T01:40:27;26.50;19.90
50560;DHT22;36510;52.610;13.468;2022-08-05T01:45:19;26.40;20.60
50560;DHT22;36510;52.610;13.468;2022-08-05T01:50:15;26.20;21.10
50560;DHT22;36510;52.610;13.468;2022-08-05T01:55:08;26.20;21.40
50560;DHT22;36510;52.610;13.468;2022-08-05T02:00:01;26.20;22.40
50560;DHT22;36510;52.610;13.468;2022-08-05T02:04:56;26.20;22.00
50560;DHT22;36510;52.610;13.468;2022-08-05T02:09:47;26.10;22.60
50560;DHT22;36510;52.610;13.468;2022-08-05T02:14:50;26.10;22.70
50560;DHT22;36510;52.610;13.468;2022-08-05T02:19:50;25.90;23.60
50560;DHT22;36510;52.610;13.468;2022-08-05T02:24:51;26.00;23.20
50560;DHT22;36510;52.610;13.468;2022-08-05T02:29:43;25.90;24.00
50560;DHT22;36510;52.610;13.468;2022-08-05T02:34:34;25.80;23.90
50560;DHT22;36510;52.610;13.468;2022-08-05T02:39:26;25.90;24.00
50560;DHT22;36510;52.610;13.468;2022-08-05T02:44:22;25.90;24.00
50560;DHT22;36510;52.610;13.468;2022-08-05T02:49:14;25.80;23.90
50560;DHT22;36510;52.610;13.468;2022-08-05T02:54:05;25.70;24.80
50560;DHT22;36510;52.610;13.468;2022-08-05T02:58:58;25.70;24.90
50560;DHT22;36510;52.610;13.468;2022-08-05T03:03:52;25.70;25.20
50560;DHT22;36510;52.610;13.468;2022-08-05T03:08:43;25.50;26.10
50560;DHT22;36510;52.610;13.468;2022-08-05T03:13:34;25.40;26.20
50560;DHT22;36510;52.610;13.468;2022-08-05T03:18:28;25.40;26.60
50560;DHT22;36510;52.610;13.468;2022-08-05T03:23:19;25.40;26.50
50560;DHT22;36510;52.610;13.468;2022-08-05T03:28:09;25.50;26.70
50560;DHT22;36510;52.610;13.468;2022-08-05T03:33:05;25.30;27.20
50560;DHT22;36510;52.610;13.468;2022-08-05T03:37:56;25.30;27.30
50560;DHT22;36510;52.610;13.468;2022-08-05T03:42:47;25.30;27.40
50560;DHT22;36510;52.610;13.468;2022-08-05T03:47:37;25.30;27.70
50560;DHT22;36510;52.610;13.468;2022-08-05T03:52:32;25.30;27.90
50560;DHT22;36510;52.610;13.468;2022-08-05T03:57:27;25.40;27.60
50560;DHT22;36510;52.610;13.468;2022-08-05T04:02:24;25.40;27.80
50560;DHT22;36510;52.610;13.468;2022-08-05T04:07:16;25.50;28.30
50560;DHT22;36510;52.610;13.468;2022-08-05T04:12:07;25.50;27.70
50560;DHT22;36510;52.610;13.468;2022-08-05T04:16:58;25.50;28.30
50560;DHT22;36510;52.610;13.468;2022-08-05T04:21:49;25.50;28.60
50560;DHT22;36510;52.610;13.468;2022-08-05T04:26:39;25.60;28.10
50560;DHT22;36510;52.610;13.468;2022-08-05T04:31:30;25.60;28.00
50560;DHT22;36510;52.610;13.468;2022-08-05T04:36:20;25.70;28.20
50560;DHT22;36510;52.610;13.468;2022-08-05T04:41:11;25.70;28.30
50560;DHT22;36510;52.610;13.468;2022-08-05T04:46:02;25.70;29.00
50560;DHT22;36510;52.610;13.468;2022-08-05T04:50:53;25.70;28.80
50560;DHT22;36510;52.610;13.468;2022-08-05T04:55:45;25.70;28.80
50560;DHT22;36510;52.610;13.468;2022-08-05T05:00:37;25.90;28.70
50560;DHT22;36510;52.610;13.468;2022-08-05T05:05:28;25.90;28.80
50560;DHT22;36510;52.610;13.468;2022-08-05T05:10:18;25.70;29.20
50560;DHT22;36510;52.610;13.468;2022-08-05T05:15:09;25.70;29.50
50560;DHT22;36510;52.610;13.468;2022-08-05T05:20:00;25.60;29.70
50560;DHT22;36510;52.610;13.468;2022-08-05T05:24:50;25.70;29.60
50560;DHT22;36510;52.610;13.468;2022-08-05T05:29:41;25.80;29.40
50560;DHT22;36510;52.610;13.468;2022-08-05T05:34:31;25.80;29.90
50560;DHT22;36510;52.610;13.468;2022-08-05T05:39:21;26.00;29.60
50560;DHT22;36510;52.610;13.468;2022-08-05T05:44:12;26.10;29.40
50560;DHT22;36510;52.610;13.468;2022-08-05T05:49:02;26.20;29.90
50560;DHT22;36510;52.610;13.468;2022-08-05T05:53:53;26.40;29.20
50560;DHT22;36510;52.610;13.468;2022-08-05T05:58:46;26.40;29.00
50560;DHT22;36510;52.610;13.468;2022-08-05T06:03:37;26.40;29.40
50560;DHT22;36510;52.610;13.468;2022-08-05T06:08:27;26.50;29.30
50560;DHT22;36510;52.610;13.468;2022-08-05T06:13:18;26.70;29.00
50560;DHT22;36510;52.610;13.468;2022-08-05T06:18:08;26.70;28.00
50560;DHT22;36510;52.610;13.468;2022-08-05T06:22:59;26.70;27.90
50560;DHT22;36510;52.610;13.468;2022-08-05T06:27:49;26.70;28.00
50560;DHT22;36510;52.610;13.468;2022-08-05T06:32:40;26.80;27.70
50560;DHT22;36510;52.610;13.468;2022-08-05T06:37:30;26.90;27.40
50560;DHT22;36510;52.610;13.468;2022-08-05T06:42:21;26.70;27.80
50560;DHT22;36510;52.610;13.468;2022-08-05T06:47:12;26.70;28.30
50560;DHT22;36510;52.610;13.468;2022-08-05T06:52:02;26.70;28.90
50560;DHT22;36510;52.610;13.468;2022-08-05T06:56:53;26.70;29.30
50560;DHT22;36510;52.610;13.468;2022-08-05T07:01:43;26.90;29.00
50560;DHT22;36510;52.610;13.468;2022-08-05T07:06:34;27.20;27.80
50560;DHT22;36510;52.610;13.468;2022-08-05T07:11:25;27.40;27.00
50560;DHT22;36510;52.610;13.468;2022-08-05T07:16:18;27.40;26.90
50560;DHT22;36510;52.610;13.468;2022-08-05T07:21:27;27.60;26.50
50560;DHT22;36510;52.610;13.468;2022-08-05T07:26:17;27.80;26.00
50560;DHT22;36510;52.610;13.468;2022-08-05T07:31:08;27.80;26.00
50560;DHT22;36510;52.610;13.468;2022-08-05T07:35:59;28.00;25.90
50560;DHT22;36510;52.610;13.468;2022-08-05T07:40:49;28.10;25.50
50560;DHT22;36510;52.610;13.468;2022-08-05T07:45:41;28.50;24.50
50560;DHT22;36510;52.610;13.468;2022-08-05T07:50:33;28.60;24.00
50560;DHT22;36510;52.610;13.468;2022-08-05T07:55:24;28.60;24.10
50560;DHT22;36510;52.610;13.468;2022-08-05T08:00:14;28.50;24.20
50560;DHT22;36510;52.610;13.468;2022-08-05T08:05:05;28.30;24.40
50560;DHT22;36510;52.610;13.468;2022-08-05T08:09:56;28.10;24.20
50560;DHT22;36510;52.610;13.468;2022-08-05T08:14:46;27.80;24.90
50560;DHT22;36510;52.610;13.468;2022-08-05T08:19:41;27.60;25.90
50560;DHT22;36510;52.610;13.468;2022-08-05T08:24:32;27.40;26.60
50560;DHT22;36510;52.610;13.468;2022-08-05T08:29:23;27.20;26.90
50560;DHT22;36510;52.610;13.468;2022-08-05T08:34:13;27.10;27.10
50560;DHT22;36510;52.610;13.468;2022-08-05T08:39:04;26.80;27.30
50560;DHT22;36510;52.610;13.468;2022-08-05T08:43:54;26.70;27.90
50560;DHT22;36510;52.610;13.468;2022-08-05T08:48:47;26.80;27.80
50560;DHT22;36510;52.610;13.468;2022-08-05T08:53:38;26.90;27.40
50560;DHT22;36510;52.610;13.468;2022-08-05T08:58:30;26.90;28.20
50560;DHT22;36510;52.610;13.468;2022-08-05T09:03:21;26.80;28.30
50560;DHT22;36510;52.610;13.468;2022-08-05T09:08:11;26.80;28.80
50560;DHT22;36510;52.610;13.468;2022-08-05T09:13:02;26.90;28.80
50560;DHT22;36510;52.610;13.468;2022-08-05T09:17:52;26.70;30.40
50560;DHT22;36510;52.610;13.468;2022-08-05T09:23:09;26.70;31.70
50560;DHT22;36510;52.610;13.468;2022-08-05T09:28:14;26.80;31.70
50560;DHT22;36510;52.610;13.468;2022-08-05T09:33:04;27.00;32.60
50560;DHT22;36510;52.610;13.468;2022-08-05T09:37:56;27.00;30.80
50560;DHT22;36510;52.610;13.468;2022-08-05T09:42:48;27.10;30.30
50560;DHT22;36510;52.610;13.468;2022-08-05T09:47:40;27.20;29.60
50560;DHT22;36510;52.610;13.468;2022-08-05T09:52:33;27.40;28.60
50560;DHT22;36510;52.610;13.468;2022-08-05T10:02:33;27.60;27.40
50560;DHT22;36510;52.610;13.468;2022-08-05T10:07:23;27.40;26.70
50560;DHT22;36510;52.610;13.468;2022-08-05T10:12:46;27.30;27.50
50560;DHT22;36510;52.610;13.468;2022-08-05T10:17:37;27.40;28.80
50560;DHT22;36510;52.610;13.468;2022-08-05T10:22:28;27.20;29.60
50560;DHT22;36510;52.610;13.468;2022-08-05T10:27:18;26.90;32.00
50560;DHT22;36510;52.610;13.468;2022-08-05T10:32:09;26.70;35.30
50560;DHT22;36510;52.610;13.468;2022-08-05T10:37:00;26.60;36.00
50560;DHT22;36510;52.610;13.468;2022-08-05T10:42:15;26.50;37.30
50560;DHT22;36510;52.610;13.468;2022-08-05T10:47:12;26.50;39.40
50560;DHT22;36510;52.610;13.468;2022-08-05T10:52:02;26.50;38.40
50560;DHT22;36510;52.610;13.468;2022-08-05T10:56:53;26.50;37.30
50560;DHT22;36510;52.610;13.468;2022-08-05T11:01:47;26.40;41.80
50560;DHT22;36510;52.610;13.468;2022-08-05T11:11:51;27.70;37.70
50560;DHT22;36510;52.610;13.468;2022-08-05T11:16:41;28.00;34.20
50560;DHT22;36510;52.610;13.468;2022-08-05T11:21:32;27.60;35.30
50560;DHT22;36510;52.610;13.468;2022-08-05T11:26:24;27.40;35.60
50560;DHT22;36510;52.610;13.468;2022-08-05T11:36:07;30.50;26.20
50560;DHT22;36510;52.610;13.468;2022-08-05T11:41:03;32.60;19.50
50560;DHT22;36510;52.610;13.468;2022-08-05T11:45:54;34.20;16.00
50560;DHT22;36510;52.610;13.468;2022-08-05T11:50:46;34.20;14.30
50560;DHT22;36510;52.610;13.468;2022-08-05T12:00:44;32.70;17.30
50560;DHT22;36510;52.610;13.468;2022-08-05T12:05:34;31.80;17.80
50560;DHT22;36510;52.610;13.468;2022-08-05T12:10:26;31.50;19.50
50560;DHT22;36510;52.610;13.468;2022-08-05T12:15:20;31.40;19.50
50560;DHT22;36510;52.610;13.468;2022-08-05T12:20:10;31.30;19.60
50560;DHT22;36510;52.610;13.468;2022-08-05T12:25:02;31.30;19.40
50560;DHT22;36510;52.610;13.468;2022-08-05T12:30:07;31.20;19.40
50560;DHT22;36510;52.610;13.468;2022-08-05T12:34:58;31.30;19.80
50560;DHT22;36510;52.610;13.468;2022-08-05T12:39:49;31.70;18.20
50560;DHT22;36510;52.610;13.468;2022-08-05T12:44:42;32.20;16.40
50560;DHT22;36510;52.610;13.468;2022-08-05T12:49:42;32.10;16.40
50560;DHT22;36510;52.610;13.468;2022-08-05T12:54:34;32.30;16.20
50560;DHT22;36510;52.610;13.468;2022-08-05T12:59:26;32.70;14.90
50560;DHT22;36510;52.610;13.468;2022-08-05T13:04:17;33.10;12.90
50560;DHT22;36510;52.610;13.468;2022-08-05T13:09:09;32.70;13.90
50560;DHT22;36510;52.610;13.468;2022-08-05T13:14:00;32.30;14.70
50560;DHT22;36510;52.610;13.468;2022-08-05T13:18:54;31.80;15.80
50560;DHT22;36510;52.610;13.468;2022-08-05T13:23:46;31.60;16.60
50560;DHT22;36510;52.610;13.468;2022-08-05T13:28:36;31.20;18.10
50560;DHT22;36510;52.610;13.468;2022-08-05T13:33:26;31.00;19.30
50560;DHT22;36510;52.610;13.468;2022-08-05T13:38:18;31.00;18.20
50560;DHT22;36510;52.610;13.468;2022-08-05T13:43:09;30.90;18.60
50560;DHT22;36510;52.610;13.468;2022-08-05T13:48:00;30.90;18.50
50560;DHT22;36510;52.610;13.468;2022-08-05T13:52:51;30.80;17.70
50560;DHT22;36510;52.610;13.468;2022-08-05T13:57:41;30.70;17.70
50560;DHT22;36510;52.610;13.468;2022-08-05T14:02:32;30.80;18.00
50560;DHT22;36510;52.610;13.468;2022-08-05T14:07:27;30.70;18.80
50560;DHT22;36510;52.610;13.468;2022-08-05T14:12:18;30.60;20.10
50560;DHT22;36510;52.610;13.468;2022-08-05T14:17:09;30.50;21.00
50560;DHT22;36510;52.610;13.468;2022-08-05T14:21:59;30.50;21.80
50560;DHT22;36510;52.610;13.468;2022-08-05T14:26:50;30.50;21.20
50560;DHT22;36510;52.610;13.468;2022-08-05T14:31:41;30.50;21.90
50560;DHT22;36510;52.610;13.468;2022-08-05T14:36:31;30.50;20.80
50560;DHT22;36510;52.610;13.468;2022-08-05T14:41:21;30.40;20.00
50560;DHT22;36510;52.610;13.468;2022-08-05T14:46:12;30.30;20.20
50560;DHT22;36510;52.610;13.468;2022-08-05T14:51:03;30.20;20.00
50560;DHT22;36510;52.610;13.468;2022-08-05T14:55:53;30.10;20.70
50560;DHT22;36510;52.610;13.468;2022-08-05T15:00:44;30.00;21.60
50560;DHT22;36510;52.610;13.468;2022-08-05T15:05:34;30.00;21.70
50560;DHT22;36510;52.610;13.468;2022-08-05T15:10:25;29.80;22.20
50560;DHT22;36510;52.610;13.468;2022-08-05T15:15:15;29.60;22.70
50560;DHT22;36510;52.610;13.468;2022-08-05T15:20:08;29.50;22.80
50560;DHT22;36510;52.610;13.468;2022-08-05T15:24:59;29.30;23.10
50560;DHT22;36510;52.610;13.468;2022-08-05T15:29:49;29.10;23.50
50560;DHT22;36510;52.610;13.468;2022-08-05T15:34:40;29.00;24.10
50560;DHT22;36510;52.610;13.468;2022-08-05T15:39:30;29.00;24.30
50560;DHT22;36510;52.610;13.468;2022-08-05T15:44:21;28.90;24.60
50560;DHT22;36510;52.610;13.468;2022-08-05T15:49:11;28.70;25.00
50560;DHT22;36510;52.610;13.468;2022-08-05T15:54:02;28.60;25.30
50560;DHT22;36510;52.610;13.468;2022-08-05T15:58:52;28.40;26.30
50560;DHT22;36510;52.610;13.468;2022-08-05T16:03:44;28.40;26.90
50560;DHT22;36510;52.610;13.468;2022-08-05T16:08:35;28.20;27.30
50560;DHT22;36510;52.610;13.468;2022-08-05T16:13:25;28.10;27.40
50560;DHT22;36510;52.610;13.468;2022-08-05T16:18:17;27.90;27.60
50560;DHT22;36510;52.610;13.468;2022-08-05T16:23:07;27.90;27.90
50560;DHT22;36510;52.610;13.468;2022-08-05T16:28:03;27.90;27.20
50560;DHT22;36510;52.610;13.468;2022-08-05T16:32:54;27.90;27.90
50560;DHT22;36510;52.610;13.468;2022-08-05T16:37:45;27.80;27.30
50560;DHT22;36510;52.610;13.468;2022-08-05T16:42:35;27.70;27.40
50560;DHT22;36510;52.610;13.468;2022-08-05T16:47:26;27.70;27.70
50560;DHT22;36510;52.610;13.468;2022-08-05T16:52:16;27.60;28.50
50560;DHT22;36510;52.610;13.468;2022-08-05T16:57:07;27.50;29.00
50560;DHT22;36510;52.610;13.468;2022-08-05T17:01:57;27.40;29.40
50560;DHT22;36510;52.610;13.468;2022-08-05T17:06:48;27.40;29.50
50560;DHT22;36510;52.610;13.468;2022-08-05T17:11:38;27.20;29.10
50560;DHT22;36510;52.610;13.468;2022-08-05T17:16:29;27.00;29.50
50560;DHT22;36510;52.610;13.468;2022-08-05T17:21:19;26.90;29.10
50560;DHT22;36510;52.610;13.468;2022-08-05T17:26:10;26.50;30.00
50560;DHT22;36510;52.610;13.468;2022-08-05T17:31:01;26.30;29.90
50560;DHT22;36510;52.610;13.468;2022-08-05T17:35:51;25.90;29.90
50560;DHT22;36510;52.610;13.468;2022-08-05T17:40:41;25.60;30.10
50560;DHT22;36510;52.610;13.468;2022-08-05T17:45:32;25.40;29.00
50560;DHT22;36510;52.610;13.468;2022-08-05T17:50:24;25.00;30.00
50560;DHT22;36510;52.610;13.468;2022-08-05T17:55:14;24.80;34.40
50560;DHT22;36510;52.610;13.468;2022-08-05T18:00:08;24.10;40.20
50560;DHT22;36510;52.610;13.468;2022-08-05T18:04:59;23.60;41.70
50560;DHT22;36510;52.610;13.468;2022-08-05T18:09:52;23.40;41.80
50560;DHT22;36510;52.610;13.468;2022-08-05T18:14:42;23.30;44.00
50560;DHT22;36510;52.610;13.468;2022-08-05T18:19:33;23.10;43.70
50560;DHT22;36510;52.610;13.468;2022-08-05T18:24:23;23.20;43.30
50560;DHT22;36510;52.610;13.468;2022-08-05T18:29:14;23.20;42.20
50560;DHT22;36510;52.610;13.468;2022-08-05T18:34:04;23.20;43.30
50560;DHT22;36510;52.610;13.468;2022-08-05T18:38:55;23.30;43.50
50560;DHT22;36510;52.610;13.468;2022-08-05T18:43:45;23.30;42.40
50560;DHT22;36510;52.610;13.468;2022-08-05T18:48:36;23.30;42.10
50560;DHT22;36510;52.610;13.468;2022-08-05T18:53:26;23.40;41.70
50560;DHT22;36510;52.610;13.468;2022-08-05T18:58:18;23.40;40.90
50560;DHT22;36510;52.610;13.468;2022-08-05T19:03:09;23.40;40.10
50560;DHT22;36510;52.610;13.468;2022-08-05T19:07:59;23.30;39.50
50560;DHT22;36510;52.610;13.468;2022-08-05T19:12:52;23.10;35.70
50560;DHT22;36510;52.610;13.468;2022-08-05T19:17:43;23.00;35.90
50560;DHT22;36510;52.610;13.468;2022-08-05T19:22:34;22.90;35.30
50560;DHT22;36510;52.610;13.468;2022-08-05T19:27:24;22.90;35.40
50560;DHT22;36510;52.610;13.468;2022-08-05T19:32:15;22.70;37.00
50560;DHT22;36510;52.610;13.468;2022-08-05T19:37:05;22.70;36.70
50560;DHT22;36510;52.610;13.468;2022-08-05T19:41:56;22.70;34.30
50560;DHT22;36510;52.610;13.468;2022-08-05T19:46:46;22.70;33.10
50560;DHT22;36510;52.610;13.468;2022-08-05T19:51:37;22.60;32.90
50560;DHT22;36510;52.610;13.468;2022-08-05T19:56:27;22.50;32.50
50560;DHT22;36510;52.610;13.468;2022-08-05T20:01:18;22.50;32.40
50560;DHT22;36510;52.610;13.468;2022-08-05T20:06:09;22.40;32.30
50560;DHT22;36510;52.610;13.468;2022-08-05T20:10:59;22.30;32.40
50560;DHT22;36510;52.610;13.468;2022-08-05T20:15:51;22.30;31.40
50560;DHT22;36510;52.610;13.468;2022-08-05T20:20:45;22.30;32.30
50560;DHT22;36510;52.610;13.468;2022-08-05T20:25:36;22.10;32.70
50560;DHT22;36510;52.610;13.468;2022-08-05T20:30:26;22.10;32.60
50560;DHT22;36510;52.610;13.468;2022-08-05T20:35:19;22.10;32.90
50560;DHT22;36510;52.610;13.468;2022-08-05T20:40:10;22.20;31.60
50560;DHT22;36510;52.610;13.468;2022-08-05T20:45:01;22.30;31.90
50560;DHT22;36510;52.610;13.468;2022-08-05T20:49:52;22.30;32.30
50560;DHT22;36510;52.610;13.468;2022-08-05T20:54:42;22.00;31.30
50560;DHT22;36510;52.610;13.468;2022-08-05T20:59:33;22.10;31.60
50560;DHT22;36510;52.610;13.468;2022-08-05T21:04:24;22.10;32.70
50560;DHT22;36510;52.610;13.468;2022-08-05T21:09:14;22.00;32.30
50560;DHT22;36510;52.610;13.468;2022-08-05T21:14:05;21.90;33.20
50560;DHT22;36510;52.610;13.468;2022-08-05T21:18:55;21.90;32.10
50560;DHT22;36510;52.610;13.468;2022-08-05T21:23:46;21.90;32.80
50560;DHT22;36510;52.610;13.468;2022-08-05T21:28:38;21.80;33.50
50560;DHT22;36510;52.610;13.468;2022-08-05T21:33:28;21.90;33.10
50560;DHT22;36510;52.610;13.468;2022-08-05T21:38:19;21.90;33.20
50560;DHT22;36510;52.610;13.468;2022-08-05T21:43:09;21.90;33.40
50560;DHT22;36510;52.610;13.468;2022-08-05T21:48:00;21.80;33.60
50560;DHT22;36510;52.610;13.468;2022-08-05T21:52:51;21.80;33.40
50560;DHT22;36510;52.610;13.468;2022-08-05T21:57:42;21.80;33.80
50560;DHT22;36510;52.610;13.468;2022-08-05T22:02:33;21.80;33.10
50560;DHT22;36510;52.610;13.468;2022-08-05T22:07:24;21.80;33.10
50560;DHT22;36510;52.610;13.468;2022-08-05T22:12:14;21.70;33.70
50560;DHT22;36510;52.610;13.468;2022-08-05T22:17:05;21.70;34.00
50560;DHT22;36510;52.610;13.468;2022-08-05T22:21:55;21.60;34.00
50560;DHT22;36510;52.610;13.468;2022-08-05T22:26:46;21.50;34.60
50560;DHT22;36510;52.610;13.468;2022-08-05T22:31:55;21.50;35.00
50560;DHT22;36510;52.610;13.468;2022-08-05T22:36:45;21.40;34.90
50560;DHT22;36510;52.610;13.468;2022-08-05T22:41:36;21.40;34.80
50560;DHT22;36510;52.610;13.468;2022-08-05T22:46:28;21.40;35.20
50560;DHT22;36510;52.610;13.468;2022-08-05T22:51:19;21.30;35.20
50560;DHT22;36510;52.610;13.468;2022-08-05T22:56:09;21.30;34.90
50560;DHT22;36510;52.610;13.468;2022-08-05T23:01:00;21.30;35.00
50560;DHT22;36510;52.610;13.468;2022-08-05T23:05:51;21.30;35.10
50560;DHT22;36510;52.610;13.468;2022-08-05T23:10:41;21.20;35.30
50560;DHT22;36510;52.610;13.468;2022-08-05T23:15:32;21.10;35.60
50560;DHT22;36510;52.610;13.468;2022-08-05T23:20:23;21.10;35.80
50560;DHT22;36510;52.610;13.468;2022-08-05T23:25:15;21.10;36.20
50560;DHT22;36510;52.610;13.468;2022-08-05T23:30:06;21.00;36.20
50560;DHT22;36510;52.610;13.468;2022-08-05T23:34:57;21.00;35.60
50560;DHT22;36510;52.610;13.468;2022-08-05T23:39:48;21.00;34.90
50560;DHT22;36510;52.610;13.468;2022-08-05T23:44:38;20.90;34.50
50560;DHT22;36510;52.610;13.468;2022-08-05T23:49:29;20.80;34.70
50560;DHT22;36510;52.610;13.468;2022-08-05T23:54:20;20.80;33.50
50560;DHT22;36510;52.610;13.468;2022-08-05T23:59:11;20.70;33.20
